NV83 weather

Hadley Airport
Round Mountain, Nevada, United States

Public forecast

Using degrees Fahrenheit for public forecast. Weather courtesy of forecast.io.

METAR (pilot weather report)

Closest report is Tonopah Airport, 38.2 nm (70.7 km) S. Retrieved 2019/07/21 19:56 UTC (26 minutes ago):

KTPH 211956Z AUTO 17015KT 10SM CLR 33/M02 A3013 RMK AO2 SLP114 T03281022

TAF (pilot weather forecast)

Closest forecast is Tonopah Airport, 38.2 nm (70.7 km) S. Retrieved 2019/07/21 18:42 UTC (2 hours ago):

TAF KTPH 211741Z 2118/2218 VRB05KT P6SM SKC FM211900 19012G22KT P6SM SKC FM220200 19008KT P6SM SKC FM220500 VRB05KT P6SM SKC FM221700 19014G24KT P6SM SCT100